Time;durP1;ratioP1;P1;durP2;ratioP2;P2;SDS_P1;SDS_P2;PMS_P1;PMS_P2;Temp;Humidity;BMP_temperature;BMP_pressure;BME280_temperature;BME280_humidity;BME280_pressure;Samples;Min_cycle;Max_cycle;Signal;HPM_P1;HPM_P2
2022/07/05 00:00:19;;;;;;;;;;;14.90;99.90;;;;;;5044910;28;19917;-87
2022/07/05 00:02:47;;;;;;;;;;;15.00;99.90;;;;;;5039835;28;19917;-88
2022/07/05 00:05:13;;;;;;;;;;;14.80;99.90;;;;;;5013390;28;19917;-87
2022/07/05 00:07:39;;;;;;;;;;;14.80;99.90;;;;;;5016708;28;20058;-87
2022/07/05 00:10:04;;;;;;;;;;;14.70;99.90;;;;;;5019122;28;19917;-87
2022/07/05 00:12:32;;;;;;;;;;;14.70;99.90;;;;;;5049594;28;20007;-87
2022/07/05 00:14:58;;;;;;;;;;;14.80;99.90;;;;;;5027034;28;19928;-88
2022/07/05 00:17:24;;;;;;;;;;;14.70;99.90;;;;;;5025044;28;19922;-86
2022/07/05 00:19:50;;;;;;;;;;;14.60;99.90;;;;;;4982515;28;19921;-86
2022/07/05 00:22:15;;;;;;;;;;;14.60;99.90;;;;;;5041186;28;19916;-87
2022/07/05 00:24:41;;;;;;;;;;;14.60;99.90;;;;;;5017050;28;19990;-87
2022/07/05 00:27:06;;;;;;;;;;;14.60;99.90;;;;;;5052536;28;19916;-88
2022/07/05 00:29:32;;;;;;;;;;;14.50;99.90;;;;;;4992268;28;19937;-87
2022/07/05 00:31:58;;;;;;;;;;;14.60;99.90;;;;;;5002294;28;20365;-87
2022/07/05 00:34:23;;;;;;;;;;;14.50;99.90;;;;;;4994815;28;19921;-87
2022/07/05 00:36:49;;;;;;;;;;;14.60;99.90;;;;;;4979262;28;19921;-88
2022/07/05 00:39:14;;;;;;;;;;;14.50;99.90;;;;;;5007717;28;19917;-88
2022/07/05 00:41:40;;;;;;;;;;;14.50;99.90;;;;;;5027208;28;20398;-87
2022/07/05 00:44:08;;;;;;;;;;;14.50;99.90;;;;;;5034585;28;19921;-88
2022/07/05 00:46:34;;;;;;;;;;;14.50;99.90;;;;;;5039201;28;19917;-85
2022/07/05 00:49:00;;;;;;;;;;;14.50;99.90;;;;;;5010900;28;19923;-87
2022/07/05 00:51:26;;;;;;;;;;;14.50;99.90;;;;;;5009681;28;20298;-87
2022/07/05 00:53:51;;;;;;;;;;;14.50;99.90;;;;;;5017635;28;19916;-87
2022/07/05 00:56:21;;;;;;;;;;;14.50;99.90;;;;;;5018047;28;19924;-88
2022/07/05 00:58:49;;;;;;;;;;;14.40;99.90;;;;;;5026459;28;19967;-87
2022/07/05 01:01:16;;;;;;;;;;;14.50;99.90;;;;;;5012319;28;20061;-87
2022/07/05 01:03:42;;;;;;;;;;;14.50;99.90;;;;;;5051976;28;20394;-87
2022/07/05 01:06:09;;;;;;;;;;;14.50;99.90;;;;;;5050198;28;20009;-87
2022/07/05 01:08:37;;;;;;;;;;;14.40;99.90;;;;;;5043565;28;19916;-87
2022/07/05 01:11:02;;;;;;;;;;;14.50;99.90;;;;;;5018151;28;19921;-87
2022/07/05 01:13:29;;;;;;;;;;;14.50;99.90;;;;;;5017011;28;19924;-86
2022/07/05 01:15:55;;;;;;;;;;;14.50;99.90;;;;;;5014502;28;19921;-88
2022/07/05 01:18:20;;;;;;;;;;;14.50;99.90;;;;;;5038624;28;20425;-88
2022/07/05 01:20:49;;;;;;;;;;;14.50;99.90;;;;;;5014986;28;19996;-87
2022/07/05 01:23:16;;;;;;;;;;;14.50;99.90;;;;;;5014892;28;19923;-87
2022/07/05 01:25:41;;;;;;;;;;;14.50;99.90;;;;;;5026969;28;19917;-87
2022/07/05 01:28:07;;;;;;;;;;;14.50;99.90;;;;;;5028752;28;20535;-88
2022/07/05 01:30:34;;;;;;;;;;;14.50;99.90;;;;;;5053662;28;20010;-88
2022/07/05 01:33:00;;;;;;;;;;;14.40;99.90;;;;;;5049550;28;19995;-89
2022/07/05 01:35:26;;;;;;;;;;;14.40;99.90;;;;;;5036840;28;19995;-87
2022/07/05 01:37:52;;;;;;;;;;;14.30;99.90;;;;;;5034060;28;20587;-87
2022/07/05 01:40:18;;;;;;;;;;;14.40;99.90;;;;;;5033688;28;19923;-87
2022/07/05 01:42:46;;;;;;;;;;;14.40;99.90;;;;;;5033590;28;19921;-87
2022/07/05 01:45:11;;;;;;;;;;;14.40;99.90;;;;;;5003946;28;20346;-86
2022/07/05 01:47:45;;;;;;;;;;;14.30;99.90;;;;;;4999861;28;19918;-87
2022/07/05 01:50:13;;;;;;;;;;;14.30;99.90;;;;;;4979484;28;19932;-87
2022/07/05 01:52:39;;;;;;;;;;;14.30;99.90;;;;;;5012229;28;19924;-88
2022/07/05 01:55:05;;;;;;;;;;;14.20;99.90;;;;;;5032802;28;19925;-87
2022/07/05 01:57:30;;;;;;;;;;;14.20;99.90;;;;;;5030209;28;19921;-87
2022/07/05 01:59:56;;;;;;;;;;;14.20;99.90;;;;;;5032979;28;19923;-86
2022/07/05 02:02:22;;;;;;;;;;;14.20;99.90;;;;;;5022323;28;19924;-87
2022/07/05 02:04:50;;;;;;;;;;;14.20;99.90;;;;;;5015259;28;20019;-86
2022/07/05 02:07:16;;;;;;;;;;;14.20;99.90;;;;;;5051058;28;19917;-87
2022/07/05 02:09:47;;;;;;;;;;;14.10;99.90;;;;;;5016477;28;19968;-87
2022/07/05 02:12:13;;;;;;;;;;;14.10;99.90;;;;;;5042950;28;19916;-88
2022/07/05 02:14:38;;;;;;;;;;;14.10;99.90;;;;;;5033120;28;20401;-87
2022/07/05 02:17:04;;;;;;;;;;;14.10;99.90;;;;;;5033493;28;19963;-87
2022/07/05 02:19:30;;;;;;;;;;;14.20;99.90;;;;;;5020922;28;19920;-87
2022/07/05 02:21:55;;;;;;;;;;;14.10;99.90;;;;;;5016453;28;20349;-87
2022/07/05 02:24:26;;;;;;;;;;;14.00;99.90;;;;;;5016801;28;20425;-87
2022/07/05 02:26:51;;;;;;;;;;;14.10;99.90;;;;;;5023943;28;20065;-87
2022/07/05 02:29:20;;;;;;;;;;;14.00;99.90;;;;;;5030444;28;19917;-87
2022/07/05 02:31:45;;;;;;;;;;;14.00;99.90;;;;;;5005135;28;19924;-87
2022/07/05 02:34:11;;;;;;;;;;;14.00;99.90;;;;;;4992483;28;19921;-87
2022/07/05 02:36:37;;;;;;;;;;;14.00;99.90;;;;;;5004132;28;20086;-88
2022/07/05 02:39:02;;;;;;;;;;;13.90;99.90;;;;;;5050233;28;20082;-88
2022/07/05 02:41:31;;;;;;;;;;;13.90;99.90;;;;;;5033152;28;19920;-87
2022/07/05 02:43:56;;;;;;;;;;;13.90;99.90;;;;;;5009436;28;20022;-87
2022/07/05 02:46:22;;;;;;;;;;;13.90;99.90;;;;;;5028221;28;20043;-87
2022/07/05 02:48:48;;;;;;;;;;;13.90;99.90;;;;;;5010940;28;19917;-87
2022/07/05 02:51:16;;;;;;;;;;;13.90;99.90;;;;;;5006317;28;19999;-87
2022/07/05 02:53:47;;;;;;;;;;;13.80;99.90;;;;;;5009219;28;19917;-86
2022/07/05 02:56:12;;;;;;;;;;;13.80;99.90;;;;;;5033882;28;20356;-88
2022/07/05 02:58:38;;;;;;;;;;;13.80;99.90;;;;;;5032482;28;19934;-87
2022/07/05 03:01:06;;;;;;;;;;;13.80;99.90;;;;;;5040585;28;19952;-87
2022/07/05 03:03:31;;;;;;;;;;;13.80;99.90;;;;;;5022235;28;19924;-87
2022/07/05 03:06:00;;;;;;;;;;;13.80;99.90;;;;;;5050781;28;19917;-87
2022/07/05 03:08:28;;;;;;;;;;;13.70;99.90;;;;;;5041378;28;19916;-88
2022/07/05 03:10:54;;;;;;;;;;;13.70;99.90;;;;;;5008311;28;20385;-87
2022/07/05 03:13:19;;;;;;;;;;;13.70;99.90;;;;;;4985568;28;19981;-86
2022/07/05 03:15:45;;;;;;;;;;;13.70;99.90;;;;;;5012077;28;20471;-87
2022/07/05 03:18:10;;;;;;;;;;;13.80;99.90;;;;;;5016524;28;19927;-87
2022/07/05 03:20:38;;;;;;;;;;;13.70;99.90;;;;;;5007393;28;19990;-86
2022/07/05 03:23:07;;;;;;;;;;;13.90;99.90;;;;;;5032686;28;19928;-85
2022/07/05 03:25:32;;;;;;;;;;;13.70;99.90;;;;;;5016823;28;19924;-87
2022/07/05 03:27:58;;;;;;;;;;;13.80;99.90;;;;;;5014462;28;19917;-88
2022/07/05 03:30:24;;;;;;;;;;;13.80;99.90;;;;;;5011773;28;19978;-87
2022/07/05 03:32:50;;;;;;;;;;;13.90;99.90;;;;;;5032788;28;19960;-86
2022/07/05 03:35:15;;;;;;;;;;;13.80;99.90;;;;;;5024247;28;19932;-86
2022/07/05 03:37:41;;;;;;;;;;;13.80;99.90;;;;;;5038182;28;19920;-86
2022/07/05 03:40:07;;;;;;;;;;;13.80;99.90;;;;;;5032637;28;19923;-87
2022/07/05 03:42:34;;;;;;;;;;;13.80;99.90;;;;;;5050135;28;19917;-86
2022/07/05 03:44:59;;;;;;;;;;;13.90;99.90;;;;;;5020425;28;19924;-86
2022/07/05 03:47:25;;;;;;;;;;;13.90;99.90;;;;;;5025644;28;19917;-86
2022/07/05 03:49:50;;;;;;;;;;;13.90;99.90;;;;;;5012226;28;19920;-87
2022/07/05 03:52:16;;;;;;;;;;;13.90;99.90;;;;;;5030026;28;19917;-86
2022/07/05 03:54:44;;;;;;;;;;;13.80;99.90;;;;;;4997063;28;19943;-87
2022/07/05 03:57:10;;;;;;;;;;;13.90;99.90;;;;;;5047782;28;19916;-86
2022/07/05 03:59:35;;;;;;;;;;;13.90;99.90;;;;;;5035401;28;19966;-86
2022/07/05 04:02:01;;;;;;;;;;;13.90;99.90;;;;;;5011848;28;20023;-87
2022/07/05 04:04:30;;;;;;;;;;;13.90;99.90;;;;;;5031750;28;19916;-86
2022/07/05 04:07:00;;;;;;;;;;;13.90;99.90;;;;;;5053091;28;20441;-87
2022/07/05 04:09:26;;;;;;;;;;;14.00;99.90;;;;;;5118755;22;19936;-70
2022/07/05 04:11:51;;;;;;;;;;;13.90;99.90;;;;;;5016959;28;20352;-70
2022/07/05 04:14:17;;;;;;;;;;;14.00;99.90;;;;;;5031392;28;20055;-70
2022/07/05 04:16:42;;;;;;;;;;;14.00;99.90;;;;;;5037496;28;19929;-70
2022/07/05 04:19:08;;;;;;;;;;;14.00;99.90;;;;;;5028336;28;20452;-70
2022/07/05 04:21:33;;;;;;;;;;;14.00;99.90;;;;;;5011364;28;19917;-70
2022/07/05 04:23:59;;;;;;;;;;;14.00;99.90;;;;;;5005269;28;19917;-71
2022/07/05 04:26:25;;;;;;;;;;;14.00;99.90;;;;;;5017386;28;19924;-70
2022/07/05 04:28:50;;;;;;;;;;;14.00;99.90;;;;;;5032100;28;20028;-70
2022/07/05 04:31:16;;;;;;;;;;;14.00;99.90;;;;;;5027806;28;19932;-71
2022/07/05 04:33:41;;;;;;;;;;;14.00;99.90;;;;;;5008556;28;19983;-70
2022/07/05 04:36:07;;;;;;;;;;;14.00;99.90;;;;;;5015362;28;19990;-70
2022/07/05 04:38:32;;;;;;;;;;;13.90;99.90;;;;;;5045917;28;19982;-70
2022/07/05 04:40:58;;;;;;;;;;;13.90;99.90;;;;;;5049632;28;19998;-71
2022/07/05 04:43:23;;;;;;;;;;;13.90;99.90;;;;;;5048818;28;20353;-70
2022/07/05 04:45:49;;;;;;;;;;;14.00;99.90;;;;;;5009993;28;19917;-70
2022/07/05 04:48:15;;;;;;;;;;;14.00;99.90;;;;;;4990069;28;19923;-70
2022/07/05 04:50:40;;;;;;;;;;;14.10;99.90;;;;;;5028641;28;19924;-70
2022/07/05 04:53:05;;;;;;;;;;;14.00;99.90;;;;;;5028670;28;19925;-70
2022/07/05 04:55:31;;;;;;;;;;;14.10;99.90;;;;;;5027936;28;19971;-70
2022/07/05 04:57:56;;;;;;;;;;;14.10;99.90;;;;;;5010857;28;19927;-70
2022/07/05 05:00:22;;;;;;;;;;;14.20;99.90;;;;;;5028699;28;20390;-70
2022/07/05 05:02:47;;;;;;;;;;;14.20;99.90;;;;;;5027446;28;20015;-70
2022/07/05 05:05:13;;;;;;;;;;;14.30;99.90;;;;;;5042635;28;19916;-71
2022/07/05 05:07:42;;;;;;;;;;;14.40;99.90;;;;;;5031220;28;19939;-70
2022/07/05 05:10:08;;;;;;;;;;;14.40;99.90;;;;;;5034838;28;19947;-70
2022/07/05 05:12:33;;;;;;;;;;;14.50;99.90;;;;;;5010404;28;19929;-70
2022/07/05 05:14:59;;;;;;;;;;;14.50;99.90;;;;;;5021982;28;19917;-70
2022/07/05 05:17:24;;;;;;;;;;;14.60;99.90;;;;;;5025803;28;19975;-70
2022/07/05 05:19:50;;;;;;;;;;;14.60;99.90;;;;;;5029116;28;19970;-70
2022/07/05 05:22:16;;;;;;;;;;;14.60;99.90;;;;;;5009614;28;19967;-70
2022/07/05 05:24:41;;;;;;;;;;;14.70;99.90;;;;;;5018494;28;19979;-70
2022/07/05 05:27:07;;;;;;;;;;;14.80;99.90;;;;;;5029465;28;19917;-70
2022/07/05 05:29:32;;;;;;;;;;;14.80;99.90;;;;;;5020770;28;19916;-69
2022/07/05 05:31:59;;;;;;;;;;;14.90;99.90;;;;;;5027794;28;20345;-70
2022/07/05 05:34:24;;;;;;;;;;;14.90;99.90;;;;;;5009652;28;19917;-70
2022/07/05 05:36:50;;;;;;;;;;;15.00;99.90;;;;;;5020152;28;20289;-70
2022/07/05 05:39:15;;;;;;;;;;;15.00;99.90;;;;;;5014713;28;19921;-70
2022/07/05 05:41:41;;;;;;;;;;;15.10;99.90;;;;;;5010835;28;20326;-69
2022/07/05 05:44:06;;;;;;;;;;;15.10;99.90;;;;;;5017615;28;19968;-69
2022/07/05 05:46:32;;;;;;;;;;;15.20;99.90;;;;;;5021418;28;20075;-68
2022/07/05 05:48:58;;;;;;;;;;;15.20;99.90;;;;;;5016812;28;19967;-69
2022/07/05 05:51:23;;;;;;;;;;;15.30;99.90;;;;;;5009797;28;19937;-68
2022/07/05 05:53:49;;;;;;;;;;;15.30;99.90;;;;;;4989464;28;19917;-69
2022/07/05 05:56:15;;;;;;;;;;;15.40;99.90;;;;;;5028791;28;19929;-69
2022/07/05 05:58:40;;;;;;;;;;;15.50;99.90;;;;;;5039159;28;20047;-69
2022/07/05 06:01:06;;;;;;;;;;;15.50;99.90;;;;;;5029658;28;19992;-69
2022/07/05 06:03:31;;;;;;;;;;;15.60;99.90;;;;;;5041400;28;19975;-69
2022/07/05 06:05:57;;;;;;;;;;;15.70;99.90;;;;;;5032110;28;19927;-69
2022/07/05 06:08:23;;;;;;;;;;;15.80;99.90;;;;;;5029181;28;19955;-68
2022/07/05 06:10:48;;;;;;;;;;;15.80;99.90;;;;;;5028943;28;19999;-69
2022/07/05 06:13:14;;;;;;;;;;;15.80;99.90;;;;;;5022082;28;20389;-69
2022/07/05 06:15:40;;;;;;;;;;;15.90;99.90;;;;;;5021197;28;20372;-69
2022/07/05 06:18:07;;;;;;;;;;;15.90;99.90;;;;;;5046646;28;19924;-69
2022/07/05 06:20:33;;;;;;;;;;;16.10;99.90;;;;;;5027577;28;20153;-69
2022/07/05 06:22:59;;;;;;;;;;;16.10;99.90;;;;;;5013394;28;20418;-69
2022/07/05 06:25:25;;;;;;;;;;;16.20;99.90;;;;;;5039155;28;19917;-69
2022/07/05 06:27:52;;;;;;;;;;;16.30;99.90;;;;;;5009987;28;19925;-69
2022/07/05 06:30:19;;;;;;;;;;;16.40;99.90;;;;;;5022238;28;19917;-69
2022/07/05 06:32:45;;;;;;;;;;;16.40;99.90;;;;;;5021858;28;20006;-69
2022/07/05 06:35:11;;;;;;;;;;;16.50;99.90;;;;;;5029303;28;20030;-69
2022/07/05 06:37:43;;;;;;;;;;;16.60;99.90;;;;;;5012253;28;20291;-69
2022/07/05 06:40:10;;;;;;;;;;;16.70;99.90;;;;;;5022293;28;19996;-69
2022/07/05 06:42:36;;;;;;;;;;;16.70;99.90;;;;;;5019003;28;19921;-69
2022/07/05 06:45:01;;;;;;;;;;;16.70;99.90;;;;;;5046967;28;19928;-69
2022/07/05 06:47:27;;;;;;;;;;;16.80;99.90;;;;;;5029923;28;19917;-69
2022/07/05 06:49:52;;;;;;;;;;;16.80;99.90;;;;;;5043718;28;19928;-69
2022/07/05 06:52:18;;;;;;;;;;;16.90;99.90;;;;;;5032614;28;19917;-69
2022/07/05 06:54:43;;;;;;;;;;;16.90;99.90;;;;;;5027026;28;19917;-69
2022/07/05 06:57:09;;;;;;;;;;;17.00;99.90;;;;;;5027651;28;20068;-69
2022/07/05 06:59:34;;;;;;;;;;;17.10;99.90;;;;;;5025310;28;20017;-69
2022/07/05 07:02:00;;;;;;;;;;;17.00;99.90;;;;;;5027019;28;19925;-69
2022/07/05 07:04:25;;;;;;;;;;;17.20;99.90;;;;;;5027955;28;20441;-69
2022/07/05 07:06:51;;;;;;;;;;;17.30;99.90;;;;;;5008600;28;19939;-69
2022/07/05 07:09:20;;;;;;;;;;;17.20;99.90;;;;;;5034728;28;20022;-70
2022/07/05 07:11:46;;;;;;;;;;;17.20;99.90;;;;;;5024253;28;20550;-69
2022/07/05 07:14:12;;;;;;;;;;;17.30;99.90;;;;;;4997589;28;20025;-69
2022/07/05 07:16:37;;;;;;;;;;;17.30;99.90;;;;;;5000079;28;20301;-69
2022/07/05 07:19:03;;;;;;;;;;;17.40;99.90;;;;;;5033000;28;20064;-69
2022/07/05 07:21:28;;;;;;;;;;;17.40;99.90;;;;;;5008294;28;20477;-69
2022/07/05 07:23:54;;;;;;;;;;;17.50;99.90;;;;;;5011697;28;19917;-70
2022/07/05 07:26:19;;;;;;;;;;;17.60;99.90;;;;;;5008983;28;19917;-70
2022/07/05 07:28:45;;;;;;;;;;;17.50;99.90;;;;;;5007668;28;20330;-69
2022/07/05 07:31:11;;;;;;;;;;;17.60;99.90;;;;;;5028376;28;19917;-70
2022/07/05 07:33:36;;;;;;;;;;;17.60;99.90;;;;;;5030040;28;19936;-69
2022/07/05 07:36:02;;;;;;;;;;;17.70;99.90;;;;;;5013179;28;19936;-69
2022/07/05 07:38:28;;;;;;;;;;;17.70;99.90;;;;;;5031007;28;20011;-69
2022/07/05 07:40:53;;;;;;;;;;;17.70;99.90;;;;;;5030449;28;20052;-69
2022/07/05 07:43:19;;;;;;;;;;;17.70;99.90;;;;;;5019367;28;19996;-69
2022/07/05 07:45:44;;;;;;;;;;;17.70;99.90;;;;;;5050478;28;19916;-69
2022/07/05 07:48:10;;;;;;;;;;;17.80;99.90;;;;;;5050197;28;19916;-69
2022/07/05 07:50:35;;;;;;;;;;;17.90;99.90;;;;;;5024992;28;19927;-69
2022/07/05 07:53:01;;;;;;;;;;;18.00;99.90;;;;;;5005562;28;20273;-69
2022/07/05 07:55:27;;;;;;;;;;;18.10;99.90;;;;;;5031194;28;19919;-69
2022/07/05 07:57:52;;;;;;;;;;;18.10;99.90;;;;;;5029985;28;19928;-69
2022/07/05 08:00:18;;;;;;;;;;;18.10;99.90;;;;;;5005626;28;20069;-69
2022/07/05 08:02:43;;;;;;;;;;;18.20;99.90;;;;;;5029474;28;19917;-69
2022/07/05 08:05:09;;;;;;;;;;;18.20;99.90;;;;;;5030217;28;20368;-69
2022/07/05 08:07:35;;;;;;;;;;;18.20;99.90;;;;;;5021163;28;19974;-69
2022/07/05 08:10:01;;;;;;;;;;;18.30;99.90;;;;;;5037270;28;19988;-69
2022/07/05 08:12:26;;;;;;;;;;;18.40;99.90;;;;;;5030101;28;20346;-69
2022/07/05 08:14:52;;;;;;;;;;;18.30;99.90;;;;;;5011247;28;19921;-69
2022/07/05 08:17:20;;;;;;;;;;;18.40;99.90;;;;;;5020343;28;19921;-69
2022/07/05 08:22:29;;;;;;;;;;;18.50;99.90;;;;;;5010557;28;19996;-69
2022/07/05 08:24:55;;;;;;;;;;;18.60;99.90;;;;;;5012667;28;20017;-71
2022/07/05 08:27:21;;;;;;;;;;;18.60;99.90;;;;;;5020102;28;20011;-69
2022/07/05 08:29:46;;;;;;;;;;;18.60;99.90;;;;;;5021630;28;20055;-70
2022/07/05 08:32:12;;;;;;;;;;;18.50;99.90;;;;;;5023675;28;20340;-69
2022/07/05 08:34:37;;;;;;;;;;;18.50;99.90;;;;;;5030141;28;19924;-69
2022/07/05 08:37:03;;;;;;;;;;;18.50;99.90;;;;;;5049480;28;19921;-70
2022/07/05 08:39:29;;;;;;;;;;;18.60;99.90;;;;;;5049633;28;19952;-70
2022/07/05 08:41:56;;;;;;;;;;;18.60;99.90;;;;;;5030266;28;19971;-69
2022/07/05 08:44:22;;;;;;;;;;;18.70;99.90;;;;;;5045441;28;19917;-69
2022/07/05 08:46:50;;;;;;;;;;;18.70;99.90;;;;;;5029879;28;19917;-69
2022/07/05 08:49:19;;;;;;;;;;;18.70;99.90;;;;;;4995114;28;19921;-70
2022/07/05 08:51:45;;;;;;;;;;;18.70;99.90;;;;;;5029133;28;19917;-70
2022/07/05 08:54:12;;;;;;;;;;;18.60;99.90;;;;;;5028303;28;19954;-69
2022/07/05 08:56:38;;;;;;;;;;;18.60;99.90;;;;;;5030627;28;19921;-70
2022/07/05 08:59:03;;;;;;;;;;;18.50;99.90;;;;;;5023182;28;20359;-69
2022/07/05 09:01:34;;;;;;;;;;;18.50;99.90;;;;;;5017008;28;19924;-69
2022/07/05 09:04:07;;;;;;;;;;;18.50;99.90;;;;;;5028238;28;20385;-70
2022/07/05 09:06:35;;;;;;;;;;;18.50;99.90;;;;;;5029015;28;19953;-69
2022/07/05 09:09:02;;;;;;;;;;;18.50;99.90;;;;;;5027751;28;19927;-69
2022/07/05 09:11:30;;;;;;;;;;;18.50;99.90;;;;;;5028261;28;19996;-69
2022/07/05 09:13:56;;;;;;;;;;;18.40;99.90;;;;;;5017285;28;20389;-69
2022/07/05 09:16:22;;;;;;;;;;;18.40;99.90;;;;;;5023117;28;20022;-69
2022/07/05 09:18:49;;;;;;;;;;;18.40;99.90;;;;;;5036050;28;19929;-69
2022/07/05 09:21:15;;;;;;;;;;;18.40;99.90;;;;;;5010289;28;19917;-69
2022/07/05 09:23:41;;;;;;;;;;;18.40;99.90;;;;;;5028719;28;20365;-69
2022/07/05 09:26:06;;;;;;;;;;;18.60;99.90;;;;;;5028256;28;19920;-69
2022/07/05 09:28:32;;;;;;;;;;;18.70;99.90;;;;;;5028209;28;20275;-69
2022/07/05 09:30:57;;;;;;;;;;;18.80;99.90;;;;;;5011904;28;20267;-69
2022/07/05 09:33:23;;;;;;;;;;;18.80;99.90;;;;;;5008235;28;19940;-69
2022/07/05 09:35:59;;;;;;;;;;;18.70;99.90;;;;;;5017178;28;20394;-69
2022/07/05 09:38:25;;;;;;;;;;;18.70;99.90;;;;;;5010224;28;19921;-69
2022/07/05 09:40:55;;;;;;;;;;;18.90;99.90;;;;;;5010932;28;19923;-69
2022/07/05 09:43:22;;;;;;;;;;;19.00;99.90;;;;;;5028201;28;19917;-69
2022/07/05 09:45:52;;;;;;;;;;;18.90;99.90;;;;;;5029874;28;19920;-69
2022/07/05 09:48:18;;;;;;;;;;;18.80;99.90;;;;;;5013461;28;19927;-69
2022/07/05 09:50:43;;;;;;;;;;;18.70;99.90;;;;;;5041644;28;19917;-69
2022/07/05 09:53:11;;;;;;;;;;;18.70;99.90;;;;;;5002150;28;19928;-69
2022/07/05 09:55:37;;;;;;;;;;;18.70;99.90;;;;;;5028314;28;19920;-69
2022/07/05 09:58:03;;;;;;;;;;;18.80;99.90;;;;;;5028920;28;19974;-69
2022/07/05 10:00:29;;;;;;;;;;;18.90;99.90;;;;;;5016565;28;20023;-69
2022/07/05 10:03:00;;;;;;;;;;;19.00;99.90;;;;;;5040065;28;19935;-69
2022/07/05 10:05:27;;;;;;;;;;;19.30;99.90;;;;;;5048118;28;20261;-69
2022/07/05 10:07:53;;;;;;;;;;;19.50;99.90;;;;;;5046583;28;19917;-70
2022/07/05 10:10:23;;;;;;;;;;;19.50;99.90;;;;;;5083806;22;19928;-85
2022/07/05 10:12:53;;;;;;;;;;;19.50;99.90;;;;;;5030029;28;20016;-85
2022/07/05 10:15:19;;;;;;;;;;;19.40;99.90;;;;;;5012051;28;19921;-85
2022/07/05 10:17:46;;;;;;;;;;;19.00;99.90;;;;;;5011377;28;19984;-85
2022/07/05 10:20:32;;;;;;;;;;;18.90;99.90;;;;;;5043401;28;20029;-84
2022/07/05 10:22:57;;;;;;;;;;;18.70;99.90;;;;;;5033302;28;20260;-85
2022/07/05 10:25:23;;;;;;;;;;;18.60;99.90;;;;;;5037088;28;19916;-86
2022/07/05 10:27:53;;;;;;;;;;;18.60;99.90;;;;;;5028922;28;19917;-85
2022/07/05 10:30:19;;;;;;;;;;;18.60;99.90;;;;;;5019727;28;19917;-85
2022/07/05 10:32:46;;;;;;;;;;;18.50;99.90;;;;;;5003324;28;19917;-85
2022/07/05 10:35:14;;;;;;;;;;;18.60;99.90;;;;;;5009079;28;19974;-85
2022/07/05 10:37:39;;;;;;;;;;;18.80;99.90;;;;;;5004412;28;20294;-84
2022/07/05 10:40:06;;;;;;;;;;;18.90;99.90;;;;;;5032821;28;19917;-86
2022/07/05 10:42:39;;;;;;;;;;;18.90;99.90;;;;;;5032564;28;19936;-84
2022/07/05 10:45:28;;;;;;;;;;;19.00;99.90;;;;;;5026835;28;19917;-85
2022/07/05 10:48:14;;;;;;;;;;;19.20;99.90;;;;;;5008595;28;20263;-86
2022/07/05 10:50:43;;;;;;;;;;;19.40;99.90;;;;;;5015216;28;19924;-85
2022/07/05 10:53:12;;;;;;;;;;;19.50;99.90;;;;;;5050562;28;19939;-85
2022/07/05 10:55:46;;;;;;;;;;;19.50;99.90;;;;;;5006454;28;20284;-85
2022/07/05 10:58:19;;;;;;;;;;;19.60;99.90;;;;;;5030889;28;19921;-85
2022/07/05 11:00:46;;;;;;;;;;;19.50;99.90;;;;;;5014167;28;19922;-85
2022/07/05 11:03:30;;;;;;;;;;;19.40;99.90;;;;;;5022733;28;19956;-85
2022/07/05 11:05:56;;;;;;;;;;;19.30;99.90;;;;;;5020702;28;19917;-85
2022/07/05 11:08:21;;;;;;;;;;;19.40;99.90;;;;;;5020145;28;19923;-85
2022/07/05 11:11:06;;;;;;;;;;;19.50;99.90;;;;;;5019348;28;19920;-84
2022/07/05 11:13:35;;;;;;;;;;;19.60;99.90;;;;;;4987990;28;19924;-85
2022/07/05 11:16:19;;;;;;;;;;;19.90;99.90;;;;;;5027289;28;19921;-85
2022/07/05 11:18:45;;;;;;;;;;;19.90;99.90;;;;;;5015685;28;20187;-85
2022/07/05 11:21:21;;;;;;;;;;;20.00;99.90;;;;;;4996896;28;20287;-85
2022/07/05 11:23:49;;;;;;;;;;;20.10;99.90;;;;;;5009226;28;20449;-86
2022/07/05 11:26:21;;;;;;;;;;;20.40;99.90;;;;;;5036414;28;20053;-85
2022/07/05 11:28:48;;;;;;;;;;;20.50;97.90;;;;;;5015671;28;19982;-85
2022/07/05 11:31:36;;;;;;;;;;;20.20;99.90;;;;;;4997126;28;20071;-85
2022/07/05 11:34:12;;;;;;;;;;;20.00;99.90;;;;;;5014706;28;19968;-84
2022/07/05 11:36:37;;;;;;;;;;;19.70;99.90;;;;;;5030271;28;20012;-85
2022/07/05 11:39:06;;;;;;;;;;;19.40;99.90;;;;;;5022291;28;19964;-85
2022/07/05 11:41:32;;;;;;;;;;;19.20;99.90;;;;;;5008474;28;20387;-85
2022/07/05 11:43:58;;;;;;;;;;;19.00;99.90;;;;;;5036777;28;19923;-86
2022/07/05 11:46:23;;;;;;;;;;;18.70;99.90;;;;;;4999456;28;20236;-85
2022/07/05 11:48:52;;;;;;;;;;;18.80;99.90;;;;;;5020060;28;20012;-86
2022/07/05 11:51:18;;;;;;;;;;;18.80;99.90;;;;;;5020242;28;19944;-86
2022/07/05 11:53:45;;;;;;;;;;;18.80;99.90;;;;;;5001687;28;20368;-85
2022/07/05 11:56:14;;;;;;;;;;;18.80;99.90;;;;;;4996190;28;19921;-84
2022/07/05 11:58:40;;;;;;;;;;;18.80;99.90;;;;;;5020821;28;19924;-83
2022/07/05 12:01:06;;;;;;;;;;;18.80;99.90;;;;;;5054245;28;19916;-85
2022/07/05 12:03:31;;;;;;;;;;;18.80;99.90;;;;;;5018988;28;19917;-85
2022/07/05 12:06:09;;;;;;;;;;;18.80;99.90;;;;;;5015601;28;20103;-85
2022/07/05 12:08:35;;;;;;;;;;;18.70;99.90;;;;;;5022045;28;20286;-86
2022/07/05 12:13:48;;;;;;;;;;;18.90;99.90;;;;;;5026972;28;19921;-85
2022/07/05 12:16:14;;;;;;;;;;;18.80;99.90;;;;;;5041554;28;19967;-85
2022/07/05 12:19:05;;;;;;;;;;;18.80;99.90;;;;;;5051177;28;19917;-85
2022/07/05 12:21:30;;;;;;;;;;;18.80;99.90;;;;;;5019197;28;19966;-85
2022/07/05 12:23:56;;;;;;;;;;;18.90;99.90;;;;;;5009785;28;20554;-85
2022/07/05 12:26:22;;;;;;;;;;;18.90;99.90;;;;;;5010482;28;19928;-85
2022/07/05 12:28:50;;;;;;;;;;;18.90;99.90;;;;;;5042510;28;19917;-86
2022/07/05 12:31:16;;;;;;;;;;;19.00;99.90;;;;;;5004944;28;19917;-86
2022/07/05 12:33:41;;;;;;;;;;;19.20;99.90;;;;;;5024542;28;19963;-85
2022/07/05 12:36:17;;;;;;;;;;;19.20;99.90;;;;;;5018902;28;19921;-85
2022/07/05 12:38:43;;;;;;;;;;;19.30;99.90;;;;;;5034727;28;19965;-86
2022/07/05 12:41:09;;;;;;;;;;;19.30;99.90;;;;;;5026906;28;19973;-85
2022/07/05 12:43:50;;;;;;;;;;;19.40;99.90;;;;;;5009762;28;19925;-84
2022/07/05 12:46:15;;;;;;;;;;;19.50;99.90;;;;;;5035985;28;20387;-85
2022/07/05 12:48:41;;;;;;;;;;;19.40;99.90;;;;;;5018556;28;19924;-86
2022/07/05 12:51:10;;;;;;;;;;;19.50;99.90;;;;;;5019651;28;20378;-85
2022/07/05 12:59:12;;;;;;;;;;;19.20;99.90;;;;;;5041787;28;20515;-86
2022/07/05 13:01:42;;;;;;;;;;;19.30;99.90;;;;;;5027148;28;20161;-85
2022/07/05 13:04:10;;;;;;;;;;;19.20;99.90;;;;;;5054660;28;19960;-85
2022/07/05 13:06:50;;;;;;;;;;;19.20;99.90;;;;;;5034906;28;19917;-85
2022/07/05 13:09:34;;;;;;;;;;;19.20;99.90;;;;;;5039606;28;20048;-86
2022/07/05 13:12:18;;;;;;;;;;;19.20;99.90;;;;;;4988671;28;19921;-83
2022/07/05 13:14:44;;;;;;;;;;;19.20;99.90;;;;;;5024178;28;19921;-86
2022/07/05 13:17:11;;;;;;;;;;;19.20;99.90;;;;;;5021550;28;20300;-86
2022/07/05 13:19:38;;;;;;;;;;;19.40;99.90;;;;;;5051445;28;19920;-85
2022/07/05 13:22:05;;;;;;;;;;;19.50;99.90;;;;;;5056312;28;20198;-86
2022/07/05 13:24:31;;;;;;;;;;;19.60;99.90;;;;;;5070604;28;19938;-86
2022/07/05 13:26:57;;;;;;;;;;;19.80;99.90;;;;;;5055957;28;19921;-85
2022/07/05 13:29:23;;;;;;;;;;;19.90;99.90;;;;;;5016407;28;20272;-85
2022/07/05 13:31:49;;;;;;;;;;;20.00;99.90;;;;;;4998829;28;20405;-86
2022/07/05 13:34:15;;;;;;;;;;;20.00;99.90;;;;;;5004265;28;19917;-84
2022/07/05 13:36:40;;;;;;;;;;;20.00;99.90;;;;;;5026669;28;19943;-85
2022/07/05 13:39:06;;;;;;;;;;;20.00;99.90;;;;;;5034186;28;20410;-87
2022/07/05 13:41:32;;;;;;;;;;;19.90;99.90;;;;;;5034823;28;19916;-85
2022/07/05 13:44:01;;;;;;;;;;;19.80;99.90;;;;;;5024130;28;20188;-85
2022/07/05 13:46:27;;;;;;;;;;;19.60;99.90;;;;;;5014429;28;19932;-86
2022/07/05 13:48:52;;;;;;;;;;;19.60;99.90;;;;;;5052087;28;19917;-85
2022/07/05 13:51:18;;;;;;;;;;;19.50;99.90;;;;;;5016163;28;19996;-84
2022/07/05 13:53:43;;;;;;;;;;;19.40;99.90;;;;;;5016277;28;20023;-85
2022/07/05 13:56:09;;;;;;;;;;;19.30;99.90;;;;;;5051634;28;20301;-85
2022/07/05 13:58:35;;;;;;;;;;;19.30;99.90;;;;;;5029336;28;19924;-84
2022/07/05 14:01:03;;;;;;;;;;;19.20;99.90;;;;;;5026157;28;19923;-85
2022/07/05 14:03:29;;;;;;;;;;;19.10;99.90;;;;;;5026055;28;20294;-85
2022/07/05 14:05:54;;;;;;;;;;;19.20;99.90;;;;;;5052654;28;19936;-85
2022/07/05 14:08:23;;;;;;;;;;;19.40;99.90;;;;;;5019129;28;19975;-85
2022/07/05 14:10:52;;;;;;;;;;;19.90;99.90;;;;;;5037880;28;19925;-86
2022/07/05 14:13:23;;;;;;;;;;;20.10;99.90;;;;;;5033983;28;19920;-85
2022/07/05 14:15:49;;;;;;;;;;;20.20;99.90;;;;;;5018215;28;19921;-85
2022/07/05 14:18:18;;;;;;;;;;;20.20;99.90;;;;;;5013872;28;19939;-86
2022/07/05 14:20:44;;;;;;;;;;;20.20;99.90;;;;;;5009063;28;19966;-85
2022/07/05 14:23:10;;;;;;;;;;;20.20;99.90;;;;;;5017410;28;19916;-86
2022/07/05 14:25:41;;;;;;;;;;;20.20;99.90;;;;;;5048859;28;19924;-85